EGCC/MAN METAR and TAF weather

Enter ICAO airport designator
Station Type Date Time Source
EGCC METAR 2022/01/26 08:50 UTC NOAA

EGCC 260850Z AUTO 18004KT 9999 OVC030 04/03 Q1032


Station Type Date Time Source
EGCC Decoded METAR 2022/01/26 08:50 UTC NOAA

Manchester Airport, United Kingdom (EGCC) 53-21N 002-17W 0M
Jan 26, 2022 - 03:50 AM EST / 2022.01.26 0850 UTC
Wind: from the S (180 degrees) at 5 MPH (4 KT):0
Visibility: greater than 7 mile(s):0
Sky conditions: overcast
Temperature: 39 F (4 C)
Dew Point: 37 F (3 C)
Relative Humidity: 93%
Pressure (altimeter): 30.47 in. Hg (1032 hPa)
ob: EGCC 260850Z AUTO 18004KT 9999 OVC030 04/03 Q1032
cycle: 9

Station Type Date Time Source
EGCC TAF 2022/01/26 06:06 UTC NOAA

TAF EGCC 260454Z 2606/2712 VRB02KT 9999 SCT025 PROB30
TEMPO 2606/2610 9000
BECMG 2610/2613 22010KT PROB30
TEMPO 2621/2624 25015G25KT
TEMPO 2700/2706 25015G25KT 8000 -RA BKN012 PROB40
TEMPO 2701/2704 4000 RA BKN008
BECMG 2704/2707 29010KT PROB40
TEMPO 2704/2706 BKN008

Example: see airport list